createdAt,value
2023-04-01T00:00:40.981Z,9.90
2023-04-01T00:03:11.951Z,9.80
2023-04-01T00:05:40.116Z,9.80
2023-04-01T00:08:09.730Z,9.80
2023-04-01T00:10:40.132Z,9.80
2023-04-01T00:13:08.491Z,9.90
2023-04-01T00:15:37.144Z,9.90
2023-04-01T00:18:05.618Z,9.80
2023-04-01T00:20:33.941Z,9.80
2023-04-01T00:23:02.231Z,9.80
2023-04-01T00:25:32.166Z,9.80
2023-04-01T00:28:00.344Z,9.80
2023-04-01T00:30:28.456Z,9.70
2023-04-01T00:32:56.909Z,9.80
2023-04-01T00:35:25.080Z,9.70
2023-04-01T00:37:53.196Z,9.80
2023-04-01T00:40:32.570Z,9.80
2023-04-01T00:43:00.678Z,9.80
2023-04-01T00:45:40.229Z,9.80
2023-04-01T00:48:12.098Z,9.80
2023-04-01T00:50:44.538Z,9.80
2023-04-01T00:53:14.005Z,9.80
2023-04-01T00:55:48.000Z,9.80
2023-04-01T00:58:18.963Z,9.80
2023-04-01T01:00:50.809Z,9.70
2023-04-01T01:03:19.106Z,9.80
2023-04-01T01:06:04.145Z,9.80
2023-04-01T01:08:43.744Z,9.80
2023-04-01T01:11:14.191Z,9.80
2023-04-01T01:13:48.289Z,9.80
2023-04-01T01:16:22.408Z,9.70
2023-04-01T01:18:55.561Z,9.70
2023-04-01T01:21:50.676Z,9.70
2023-04-01T01:24:37.745Z,9.70
2023-04-01T01:27:11.535Z,9.70
2023-04-01T01:30:10.920Z,9.80
2023-04-01T01:33:03.143Z,9.80
2023-04-01T01:35:35.981Z,9.80
2023-04-01T01:38:12.197Z,9.80
2023-04-01T01:40:45.115Z,9.80
2023-04-01T01:43:19.663Z,9.80
2023-04-01T01:45:51.393Z,9.70
2023-04-01T01:48:21.007Z,9.70
2023-04-01T01:50:51.624Z,9.70
2023-04-01T01:53:19.961Z,9.70
2023-04-01T01:55:49.738Z,9.70
2023-04-01T01:58:22.141Z,9.80
2023-04-01T02:00:54.501Z,9.70
2023-04-01T02:03:25.090Z,9.70
2023-04-01T02:05:57.556Z,9.70
2023-04-01T02:08:29.851Z,9.70
2023-04-01T02:11:01.183Z,9.70
2023-04-01T02:13:40.048Z,9.70
2023-04-01T02:16:14.376Z,9.70
2023-04-01T02:18:43.409Z,9.70
2023-04-01T02:21:14.110Z,9.70
2023-04-01T02:23:43.341Z,9.70
2023-04-01T02:26:13.372Z,9.70
2023-04-01T02:28:43.368Z,9.70
2023-04-01T02:31:13.020Z,9.80
2023-04-01T02:33:41.943Z,9.80
2023-04-01T02:36:15.529Z,9.80
2023-04-01T02:38:45.862Z,9.70
2023-04-01T02:41:14.379Z,9.70
2023-04-01T02:43:42.977Z,9.70
2023-04-01T02:46:11.410Z,9.70
2023-04-01T02:48:40.200Z,9.70
2023-04-01T02:51:08.357Z,9.70
2023-04-01T02:53:37.868Z,9.70
2023-04-01T02:56:06.455Z,9.70
2023-04-01T02:58:34.825Z,9.70
2023-04-01T03:01:02.893Z,9.70
2023-04-01T03:03:31.003Z,9.60
2023-04-01T03:06:01.204Z,9.60
2023-04-01T03:08:29.266Z,9.60
2023-04-01T03:11:00.251Z,9.60
2023-04-01T03:13:28.778Z,9.60
2023-04-01T03:15:57.014Z,9.60
2023-04-01T03:18:25.485Z,9.60
2023-04-01T03:20:53.986Z,9.60
2023-04-01T03:23:22.208Z,9.60
2023-04-01T03:25:50.592Z,9.60
2023-04-01T03:28:20.273Z,9.60
2023-04-01T03:30:48.538Z,9.60
2023-04-01T03:33:16.837Z,9.60
2023-04-01T03:35:44.955Z,9.60
2023-04-01T03:38:13.020Z,9.60
2023-04-01T03:40:46.294Z,9.60
2023-04-01T03:43:14.530Z,9.60
2023-04-01T03:45:48.229Z,9.60
2023-04-01T03:48:16.690Z,9.60
2023-04-01T03:50:45.840Z,9.60
2023-04-01T03:53:14.805Z,9.60
2023-04-01T03:55:44.800Z,9.60
2023-04-01T03:58:13.162Z,9.50
2023-04-01T04:00:41.650Z,9.60
2023-04-01T04:03:12.529Z,9.60
2023-04-01T04:05:48.037Z,9.60
2023-04-01T04:08:17.522Z,9.60
2023-04-01T04:10:47.336Z,9.60
2023-04-01T04:13:15.964Z,9.60
2023-04-01T04:15:51.382Z,9.60
2023-04-01T04:18:20.850Z,9.60
2023-04-01T04:20:51.934Z,9.60
2023-04-01T04:23:21.273Z,9.60
2023-04-01T04:25:57.188Z,9.60
2023-04-01T04:28:27.257Z,9.60
2023-04-01T04:30:55.806Z,9.60
2023-04-01T04:33:25.662Z,9.60
2023-04-01T04:35:57.143Z,9.60
2023-04-01T04:38:26.462Z,9.60
2023-04-01T04:40:55.973Z,9.50
2023-04-01T04:43:24.746Z,9.50
2023-04-01T04:45:53.336Z,9.50
2023-04-01T04:48:21.615Z,9.50
2023-04-01T04:50:52.864Z,9.50
2023-04-01T04:53:26.372Z,9.50
2023-04-01T04:55:54.634Z,9.50
2023-04-01T04:58:36.411Z,9.50
2023-04-01T05:01:09.059Z,9.50
2023-04-01T05:03:37.489Z,9.50
2023-04-01T05:06:09.191Z,9.50
2023-04-01T05:08:39.815Z,9.50
2023-04-01T05:11:13.754Z,9.50
2023-04-01T05:13:44.549Z,9.50
2023-04-01T05:16:15.346Z,9.50
2023-04-01T05:18:43.775Z,9.50
2023-04-01T05:21:15.616Z,9.50
2023-04-01T05:23:44.755Z,9.60
2023-04-01T05:26:15.605Z,9.60
2023-04-01T05:28:44.569Z,9.60
2023-04-01T05:31:13.315Z,9.60
2023-04-01T05:33:44.394Z,9.60
2023-04-01T05:36:16.426Z,9.60
2023-04-01T05:38:46.694Z,9.60
2023-04-01T05:41:15.878Z,9.60
2023-04-01T05:43:46.902Z,9.70
2023-04-01T05:46:34.294Z,9.70
2023-04-01T05:49:12.548Z,9.70
2023-04-01T05:51:42.067Z,9.60
2023-04-01T05:54:10.722Z,9.70
2023-04-01T05:56:39.610Z,9.60
2023-04-01T05:59:07.851Z,9.70
2023-04-01T06:01:36.634Z,9.70
2023-04-01T06:04:04.885Z,9.70
2023-04-01T06:06:34.157Z,9.70
2023-04-01T06:09:16.449Z,9.70
2023-04-01T06:12:17.178Z,9.70
2023-04-01T06:15:13.106Z,9.70
2023-04-01T06:18:11.370Z,9.70
2023-04-01T06:20:50.382Z,9.70
2023-04-01T06:23:31.302Z,9.70
2023-04-01T06:26:17.545Z,9.70
2023-04-01T06:29:10.843Z,9.70
2023-04-01T06:32:13.529Z,9.70
2023-04-01T06:35:00.930Z,9.80
2023-04-01T06:37:50.555Z,9.90
2023-04-01T06:40:46.553Z,9.90
2023-04-01T06:43:26.911Z,9.90
2023-04-01T06:46:39.470Z,10.00
2023-04-01T06:49:38.846Z,10.00
2023-04-01T06:52:31.375Z,10.10
2023-04-01T06:55:41.912Z,10.10
2023-04-01T06:58:29.692Z,10.20
2023-04-01T07:01:01.299Z,10.20
2023-04-01T07:03:35.100Z,10.30
2023-04-01T07:06:07.578Z,10.30
2023-04-01T07:08:44.586Z,10.40
2023-04-01T07:11:16.900Z,10.40
2023-04-01T07:14:21.913Z,10.40
2023-04-01T07:16:54.206Z,10.40
2023-04-01T07:19:29.232Z,10.40
2023-04-01T07:22:06.528Z,10.50
2023-04-01T07:24:58.988Z,10.40
2023-04-01T07:27:27.344Z,10.40
2023-04-01T07:30:01.470Z,10.40
2023-04-01T07:32:42.873Z,10.30
2023-04-01T07:35:30.710Z,10.40
2023-04-01T07:38:16.528Z,10.50
2023-04-01T07:40:51.446Z,10.50
2023-04-01T07:43:34.718Z,10.50
2023-04-01T07:46:42.993Z,10.50
2023-04-01T07:49:19.282Z,10.50
2023-04-01T07:51:56.660Z,10.50
2023-04-01T07:54:32.043Z,10.60
2023-04-01T07:57:07.981Z,10.60
2023-04-01T07:59:59.618Z,10.70
2023-04-01T08:02:57.976Z,10.80
2023-04-01T08:05:29.298Z,10.90
2023-04-01T08:08:09.918Z,11.00
2023-04-01T08:11:05.798Z,11.10
2023-04-01T08:14:15.656Z,11.10
2023-04-01T08:17:20.524Z,11.30
2023-04-01T08:20:05.179Z,11.40
2023-04-01T08:22:42.157Z,11.50
2023-04-01T08:25:26.359Z,11.60
2023-04-01T08:28:02.896Z,11.60
2023-04-01T08:30:40.520Z,11.50
2023-04-01T08:33:15.617Z,11.60
2023-04-01T08:35:52.518Z,11.70
2023-04-01T08:38:26.060Z,11.80
2023-04-01T08:41:03.027Z,11.80
2023-04-01T08:44:17.679Z,11.60
2023-04-01T08:47:11.714Z,11.60
2023-04-01T08:50:08.101Z,11.60
2023-04-01T08:53:08.510Z,11.60
2023-04-01T08:55:52.089Z,11.70
2023-04-01T08:58:56.833Z,11.70
2023-04-01T09:01:46.316Z,11.80
2023-04-01T09:04:48.667Z,12.00
2023-04-01T09:07:36.739Z,12.10
2023-04-01T09:10:24.096Z,12.00
2023-04-01T09:13:09.248Z,12.00
2023-04-01T09:15:56.626Z,12.00
2023-04-01T09:18:50.349Z,12.10
2023-04-01T09:21:42.244Z,12.30
2023-04-01T09:24:35.115Z,12.40
2023-04-01T09:27:08.068Z,12.70
2023-04-01T09:30:17.639Z,13.00
2023-04-01T09:33:07.591Z,13.40
2023-04-01T09:35:47.652Z,13.80
2023-04-01T09:38:32.228Z,13.90
2023-04-01T09:41:06.086Z,14.00
2023-04-01T09:44:05.003Z,14.00
2023-04-01T09:46:53.071Z,14.00
2023-04-01T09:49:56.216Z,14.00
2023-04-01T09:52:34.064Z,14.20
2023-04-01T09:55:28.961Z,14.40
2023-04-01T09:58:46.169Z,14.40
2023-04-01T10:02:12.617Z,14.30
2023-04-01T10:05:36.527Z,14.30
2023-04-01T10:08:30.330Z,14.40
2023-04-01T10:11:17.713Z,14.30
2023-04-01T10:14:20.432Z,14.30
2023-04-01T10:17:17.738Z,14.10
2023-04-01T10:20:10.276Z,13.70
2023-04-01T10:23:18.238Z,13.30
2023-04-01T10:26:34.468Z,13.00
2023-04-01T10:29:55.538Z,12.50
2023-04-01T10:33:16.591Z,12.20
2023-04-01T10:36:31.271Z,12.00
2023-04-01T10:39:39.704Z,11.90
2023-04-01T10:43:15.839Z,11.60
2023-04-01T10:46:21.224Z,11.50
2023-04-01T10:49:39.725Z,11.40
2023-04-01T10:52:36.254Z,11.20
2023-04-01T10:55:35.491Z,11.20
2023-04-01T10:59:04.344Z,11.20
2023-04-01T11:02:39.974Z,11.40
2023-04-01T11:06:37.769Z,11.60
2023-04-01T11:09:42.678Z,11.90
2023-04-01T11:12:45.561Z,12.20
2023-04-01T11:15:36.905Z,12.50
2023-04-01T11:18:39.956Z,12.70
2023-04-01T11:21:49.745Z,12.60
2023-04-01T11:24:57.002Z,12.40
2023-04-01T11:27:57.861Z,12.20
2023-04-01T11:30:36.747Z,11.90
2023-04-01T11:33:09.957Z,11.80
2023-04-01T11:36:13.800Z,11.60
2023-04-01T11:38:59.394Z,11.40
2023-04-01T11:41:54.280Z,11.30
2023-04-01T11:44:46.052Z,11.10
2023-04-01T11:47:34.286Z,11.00
2023-04-01T11:50:17.762Z,11.00
2023-04-01T11:53:03.937Z,11.00
2023-04-01T11:55:42.963Z,11.00
2023-04-01T11:58:46.713Z,11.00
2023-04-01T12:01:36.008Z,11.10
2023-04-01T12:04:33.325Z,11.10
2023-04-01T12:07:08.083Z,11.20
2023-04-01T12:09:44.955Z,11.30
2023-04-01T12:12:26.035Z,11.50
2023-04-01T12:15:04.742Z,11.70
2023-04-01T12:17:41.716Z,11.70
2023-04-01T12:20:38.878Z,11.80
2023-04-01T12:23:23.394Z,11.80
2023-04-01T12:26:17.347Z,11.80
2023-04-01T12:29:01.353Z,11.70
2023-04-01T12:31:40.499Z,11.70
2023-04-01T12:34:50.564Z,11.60
2023-04-01T12:37:26.625Z,11.50
2023-04-01T12:40:08.113Z,11.50
2023-04-01T12:43:01.874Z,11.50
2023-04-01T12:45:34.490Z,11.60
2023-04-01T12:48:30.118Z,11.60
2023-04-01T12:51:31.108Z,11.60
2023-04-01T12:54:26.648Z,11.60
2023-04-01T12:57:09.903Z,11.60
2023-04-01T12:59:56.565Z,11.60
2023-04-01T13:02:40.654Z,11.50
2023-04-01T13:05:41.156Z,11.60
2023-04-01T13:08:26.884Z,11.60
2023-04-01T13:11:12.161Z,11.60
2023-04-01T13:14:04.964Z,11.70
2023-04-01T13:16:37.399Z,11.70
2023-04-01T13:19:09.268Z,11.70
2023-04-01T13:21:50.216Z,11.60
2023-04-01T13:24:31.342Z,11.60
2023-04-01T13:27:07.640Z,11.50
2023-04-01T13:29:40.377Z,11.50
2023-04-01T13:32:27.634Z,11.40
2023-04-01T13:35:20.667Z,11.30
2023-04-01T13:37:58.729Z,11.20
2023-04-01T13:40:38.307Z,11.20
2023-04-01T13:43:14.605Z,11.10
2023-04-01T13:45:59.964Z,10.90
2023-04-01T13:48:39.018Z,10.90
2023-04-01T13:51:24.115Z,10.80
2023-04-01T13:54:20.925Z,10.70
2023-04-01T13:56:59.692Z,10.70
2023-04-01T13:59:51.765Z,10.60
2023-04-01T14:02:36.565Z,10.60
2023-04-01T14:05:32.376Z,10.50
2023-04-01T14:08:15.735Z,10.40
2023-04-01T14:10:51.441Z,10.30
2023-04-01T14:13:27.722Z,10.30
2023-04-01T14:16:16.405Z,10.20
2023-04-01T14:19:03.302Z,10.20
2023-04-01T14:21:37.570Z,10.20
2023-04-01T14:24:10.895Z,10.20
2023-04-01T14:27:11.279Z,10.20
2023-04-01T14:29:49.870Z,10.20
2023-04-01T14:32:30.421Z,10.10
2023-04-01T14:35:17.512Z,10.10
2023-04-01T14:38:10.870Z,10.00
2023-04-01T14:40:55.140Z,10.00
2023-04-01T14:43:49.023Z,9.90
2023-04-01T14:46:36.466Z,9.90
2023-04-01T14:49:16.380Z,9.80
2023-04-01T14:51:46.462Z,9.90
2023-04-01T14:54:23.619Z,9.90
2023-04-01T14:56:54.375Z,9.90
2023-04-01T14:59:29.916Z,9.90
2023-04-01T15:02:03.596Z,9.80
2023-04-01T15:05:00.587Z,9.80
2023-04-01T15:07:59.226Z,9.80
2023-04-01T15:10:54.211Z,9.70
2023-04-01T15:13:41.328Z,9.70
2023-04-01T15:16:20.823Z,9.60
2023-04-01T15:18:59.618Z,9.60
2023-04-01T15:21:44.559Z,9.60
2023-04-01T15:24:19.328Z,9.50
2023-04-01T15:27:02.259Z,9.50
2023-04-01T15:30:09.260Z,9.50
2023-04-01T15:32:52.959Z,9.50
2023-04-01T15:35:30.283Z,9.50
2023-04-01T15:38:06.068Z,9.50
2023-04-01T15:40:44.928Z,9.40
2023-04-01T15:43:27.024Z,9.30
2023-04-01T15:46:11.562Z,9.30
2023-04-01T15:48:56.567Z,9.20
2023-04-01T15:51:40.817Z,9.20
2023-04-01T15:54:27.892Z,9.20
2023-04-01T15:57:21.033Z,9.10
2023-04-01T16:00:11.747Z,9.00
2023-04-01T16:02:50.162Z,9.00
2023-04-01T16:05:39.426Z,9.00
2023-04-01T16:08:47.157Z,9.00
2023-04-01T16:11:27.085Z,9.00
2023-04-01T16:14:07.011Z,8.90
2023-04-01T16:16:49.484Z,8.90
2023-04-01T16:19:33.787Z,8.80
2023-04-01T16:22:07.100Z,8.80
2023-04-01T16:24:41.008Z,8.70
2023-04-01T16:27:17.430Z,8.70
2023-04-01T16:29:50.900Z,8.60
2023-04-01T16:32:42.927Z,8.60
2023-04-01T16:35:27.968Z,8.50
2023-04-01T16:38:01.845Z,8.50
2023-04-01T16:40:42.398Z,8.40
2023-04-01T16:43:21.627Z,8.40
2023-04-01T16:46:02.063Z,8.40
2023-04-01T16:48:38.071Z,8.40
2023-04-01T16:51:14.826Z,8.30
2023-04-01T16:53:45.561Z,8.30
2023-04-01T16:56:18.914Z,8.20
2023-04-01T16:59:04.076Z,8.20
2023-04-01T17:01:40.355Z,8.20
2023-04-01T17:04:19.260Z,8.10
2023-04-01T17:06:54.579Z,8.10
2023-04-01T17:09:35.853Z,8.00
2023-04-01T17:12:13.189Z,8.00
2023-04-01T17:14:53.223Z,8.00
2023-04-01T17:17:30.146Z,8.00
2023-04-01T17:20:14.176Z,8.00
2023-04-01T17:22:51.958Z,8.00
2023-04-01T17:25:34.023Z,7.90
2023-04-01T17:28:09.513Z,7.80
2023-04-01T17:30:44.726Z,7.80
2023-04-01T17:33:36.077Z,7.80
2023-04-01T17:36:11.326Z,7.70
2023-04-01T17:38:59.261Z,7.70
2023-04-01T17:41:35.204Z,7.70
2023-04-01T17:44:18.192Z,7.70
2023-04-01T17:47:02.948Z,7.70
2023-04-01T17:49:37.561Z,7.70
2023-04-01T17:52:13.555Z,7.60
2023-04-01T17:54:47.894Z,7.60
2023-04-01T17:57:45.642Z,7.60
2023-04-01T18:00:25.466Z,7.60
2023-04-01T18:03:09.190Z,7.50
2023-04-01T18:06:01.048Z,7.50
2023-04-01T18:08:42.507Z,7.40
2023-04-01T18:11:17.388Z,7.40
2023-04-01T18:14:24.837Z,7.40
2023-04-01T18:17:06.142Z,7.40
2023-04-01T18:19:46.952Z,7.30
2023-04-01T18:22:22.876Z,7.40
2023-04-01T18:24:59.233Z,7.30
2023-04-01T18:27:34.058Z,7.30
2023-04-01T18:30:09.623Z,7.20
2023-04-01T18:32:45.951Z,7.20
2023-04-01T18:35:52.798Z,7.20
2023-04-01T18:38:30.983Z,7.20
2023-04-01T18:41:15.191Z,7.10
2023-04-01T18:43:57.318Z,7.10
2023-04-01T18:46:36.840Z,7.10
2023-04-01T18:49:13.049Z,7.00
2023-04-01T18:51:48.653Z,7.00
2023-04-01T18:54:24.397Z,7.00
2023-04-01T18:56:52.741Z,7.10
2023-04-01T18:59:28.590Z,7.20
2023-04-01T19:02:04.886Z,7.20
2023-04-01T19:04:38.237Z,7.10
2023-04-01T19:07:41.947Z,7.10
2023-04-01T19:10:18.025Z,7.10
2023-04-01T19:12:54.215Z,7.10
2023-04-01T19:15:34.314Z,7.10
2023-04-01T19:18:27.835Z,7.10
2023-04-01T19:21:01.924Z,7.00
2023-04-01T19:24:03.192Z,7.10
2023-04-01T19:26:36.132Z,7.10
2023-04-01T19:29:15.456Z,7.00
2023-04-01T19:31:58.318Z,7.00
2023-04-01T19:34:35.931Z,7.00
2023-04-01T19:37:11.596Z,7.00
2023-04-01T19:39:51.961Z,7.00
2023-04-01T19:42:32.012Z,7.00
2023-04-01T19:45:16.715Z,7.00
2023-04-01T19:47:57.236Z,6.80
2023-04-01T19:50:36.198Z,6.80
2023-04-01T19:53:15.205Z,6.70
2023-04-01T19:55:49.579Z,6.70
2023-04-01T19:58:27.648Z,6.70
2023-04-01T20:01:00.202Z,6.60
2023-04-01T20:03:39.720Z,6.60
2023-04-01T20:06:19.456Z,6.60
2023-04-01T20:09:00.629Z,6.60
2023-04-01T20:11:47.725Z,6.60
2023-04-01T20:14:23.619Z,6.60
2023-04-01T20:16:58.067Z,6.60
2023-04-01T20:19:31.172Z,6.60
2023-04-01T20:22:01.568Z,6.60
2023-04-01T20:24:35.496Z,6.60
2023-04-01T20:27:10.213Z,6.60
2023-04-01T20:29:48.895Z,6.60
2023-04-01T20:32:30.304Z,6.60
2023-04-01T20:35:22.470Z,6.50
2023-04-01T20:37:55.705Z,6.50
2023-04-01T20:40:34.628Z,6.50
2023-04-01T20:43:35.224Z,6.50
2023-04-01T20:46:09.972Z,6.50
2023-04-01T20:49:09.473Z,6.40
2023-04-01T20:51:41.467Z,6.40
2023-04-01T20:54:26.371Z,6.40
2023-04-01T20:57:07.813Z,6.40
2023-04-01T21:00:02.147Z,6.40
2023-04-01T21:03:02.432Z,6.30
2023-04-01T21:06:11.845Z,6.30
2023-04-01T21:08:55.633Z,6.30
2023-04-01T21:11:32.083Z,6.30
2023-04-01T21:14:17.604Z,6.30
2023-04-01T21:16:58.020Z,6.30
2023-04-01T21:19:42.066Z,6.30
2023-04-01T21:22:37.266Z,6.30
2023-04-01T21:25:30.554Z,6.30
2023-04-01T21:28:27.521Z,6.30
2023-04-01T21:31:27.109Z,6.30
2023-04-01T21:34:09.676Z,6.30
2023-04-01T21:36:52.249Z,6.30
2023-04-01T21:39:38.435Z,6.30
2023-04-01T21:42:16.537Z,6.20
2023-04-01T21:45:00.567Z,6.20
2023-04-01T21:48:04.543Z,6.20
2023-04-01T21:51:08.326Z,6.10
2023-04-01T21:54:10.212Z,6.00
2023-04-01T21:57:08.229Z,5.90
2023-04-01T22:00:18.256Z,5.90
2023-04-01T22:03:20.137Z,5.90
2023-04-01T22:05:59.145Z,5.70
2023-04-01T22:08:46.156Z,5.70
2023-04-01T22:11:33.561Z,5.70
2023-04-01T22:14:07.434Z,5.60
2023-04-01T22:16:43.341Z,5.60
2023-04-01T22:19:20.913Z,5.50
2023-04-01T22:22:02.522Z,5.40
2023-04-01T22:24:41.528Z,5.30
2023-04-01T22:27:19.094Z,5.20
2023-04-01T22:29:58.253Z,5.00
2023-04-01T22:32:31.750Z,4.90
2023-04-01T22:35:06.792Z,4.70
2023-04-01T22:37:43.313Z,4.60
2023-04-01T22:40:25.591Z,4.40
2023-04-01T22:43:01.868Z,4.30
2023-04-01T22:45:47.400Z,4.10
2023-04-01T22:48:22.360Z,4.00
2023-04-01T22:50:57.280Z,3.90
2023-04-01T22:53:39.729Z,3.80
2023-04-01T22:56:20.415Z,3.70
2023-04-01T22:58:56.080Z,3.70
2023-04-01T23:01:30.236Z,3.60
2023-04-01T23:04:01.054Z,3.50
2023-04-01T23:06:33.463Z,3.40
2023-04-01T23:09:13.476Z,3.40
2023-04-01T23:11:48.366Z,3.30
2023-04-01T23:14:51.590Z,3.30
2023-04-01T23:17:47.196Z,3.20
2023-04-01T23:20:32.092Z,3.10
2023-04-01T23:23:24.193Z,3.10
2023-04-01T23:26:00.135Z,3.00
2023-04-01T23:28:46.138Z,3.00
2023-04-01T23:31:37.082Z,3.00
2023-04-01T23:34:18.752Z,2.90
2023-04-01T23:36:49.972Z,2.90
2023-04-01T23:39:25.007Z,2.90
2023-04-01T23:41:56.762Z,2.90
2023-04-01T23:44:27.573Z,2.80
2023-04-01T23:46:58.846Z,2.80
2023-04-01T23:49:31.218Z,2.70
2023-04-01T23:52:01.731Z,2.70
2023-04-01T23:54:34.465Z,2.60
2023-04-01T23:57:12.745Z,2.60
2023-04-01T23:59:41.019Z,2.50
